createdAt,value
2019-02-26T00:01:32.401Z,16.87
2019-02-26T00:04:03.415Z,17.70
2019-02-26T00:06:34.429Z,18.82
2019-02-26T00:09:07.529Z,22.27
2019-02-26T00:11:40.273Z,15.48
2019-02-26T00:14:15.532Z,16.97
2019-02-26T00:19:17.691Z,18.87
2019-02-26T00:21:50.118Z,23.62
2019-02-26T00:24:21.127Z,21.75
2019-02-26T00:26:51.944Z,22.85
2019-02-26T00:29:23.293Z,26.93
2019-02-26T00:31:57.644Z,22.37
2019-02-26T00:34:29.915Z,21.07
2019-02-26T00:37:01.774Z,21.13
2019-02-26T00:39:33.373Z,18.25
2019-02-26T00:42:05.850Z,21.80
2019-02-26T00:44:37.391Z,21.45
2019-02-26T00:47:09.038Z,25.92
2019-02-26T00:49:41.981Z,22.22
2019-02-26T00:52:15.682Z,17.45
2019-02-26T00:54:46.617Z,22.77
2019-02-26T00:57:17.590Z,19.42
2019-02-26T00:59:48.501Z,24.25
2019-02-26T01:02:19.446Z,22.48
2019-02-26T01:04:50.995Z,24.18
2019-02-26T01:07:23.774Z,20.85
2019-02-26T01:09:56.821Z,21.33
2019-02-26T01:12:28.206Z,18.57
2019-02-26T01:14:59.173Z,20.30
2019-02-26T01:17:31.241Z,22.00
2019-02-26T01:20:04.021Z,17.73
2019-02-26T01:22:37.656Z,19.60
2019-02-26T01:25:10.279Z,21.05
2019-02-26T01:27:43.620Z,25.00
2019-02-26T01:30:21.325Z,19.30
2019-02-26T01:35:18.289Z,19.35
2019-02-26T01:37:49.717Z,19.48
2019-02-26T01:40:23.531Z,22.83
2019-02-26T01:42:55.621Z,21.05
2019-02-26T01:45:28.118Z,25.52
2019-02-26T01:47:59.244Z,18.83
2019-02-26T01:50:30.883Z,24.00
2019-02-26T01:53:02.737Z,18.80
2019-02-26T01:55:33.556Z,21.60
2019-02-26T01:58:04.532Z,23.85
2019-02-26T02:00:35.562Z,22.48
2019-02-26T02:03:06.754Z,27.90
2019-02-26T02:05:37.813Z,22.02
2019-02-26T02:08:11.044Z,24.23
2019-02-26T02:10:41.636Z,17.90
2019-02-26T02:13:13.441Z,28.30
2019-02-26T02:15:46.481Z,22.48
2019-02-26T02:18:18.096Z,22.82
2019-02-26T02:20:49.823Z,23.22
2019-02-26T02:23:21.882Z,23.83
2019-02-26T02:25:53.463Z,22.60
2019-02-26T02:28:26.237Z,25.40
2019-02-26T02:30:57.138Z,20.72
2019-02-26T02:33:30.034Z,20.08
2019-02-26T02:36:00.625Z,25.12
2019-02-26T02:38:36.511Z,20.17
2019-02-26T02:41:04.360Z,26.93
2019-02-26T02:43:36.521Z,20.80
2019-02-26T02:46:07.466Z,20.08
2019-02-26T02:48:38.318Z,23.83
2019-02-26T02:51:11.384Z,20.80
2019-02-26T02:53:41.722Z,21.43
2019-02-26T02:56:15.148Z,21.10
2019-02-26T02:58:46.922Z,18.40
2019-02-26T03:01:20.422Z,20.17
2019-02-26T03:03:50.564Z,26.60
2019-02-26T03:06:24.243Z,22.73
2019-02-26T03:08:55.496Z,27.50
2019-02-26T03:11:26.509Z,23.38
2019-02-26T03:13:58.170Z,24.80
2019-02-26T03:16:29.230Z,25.00
2019-02-26T03:19:00.152Z,19.27
2019-02-26T03:21:31.032Z,20.37
2019-02-26T03:24:03.358Z,17.70
2019-02-26T03:26:34.537Z,22.42
2019-02-26T03:29:05.433Z,23.20
2019-02-26T03:31:40.550Z,18.87
2019-02-26T03:34:14.225Z,19.00
2019-02-26T03:36:45.066Z,21.27
2019-02-26T03:39:14.142Z,19.17
2019-02-26T03:41:46.041Z,18.07
2019-02-26T03:44:17.599Z,26.03
2019-02-26T03:46:48.546Z,24.27
2019-02-26T03:49:19.518Z,26.80
2019-02-26T03:51:50.556Z,23.50
2019-02-26T03:54:21.517Z,26.05
2019-02-26T03:56:52.465Z,22.70
2019-02-26T03:59:23.437Z,24.18
2019-02-26T04:01:54.465Z,25.45
2019-02-26T04:04:26.159Z,28.40
2019-02-26T04:06:59.098Z,31.73
2019-02-26T04:09:30.925Z,27.10
2019-02-26T04:12:01.847Z,25.70
2019-02-26T04:14:33.807Z,26.50
2019-02-26T04:17:06.435Z,31.77
2019-02-26T04:19:37.862Z,29.70
2019-02-26T04:22:27.783Z,32.45
2019-02-26T04:25:08.293Z,27.37
2019-02-26T04:28:01.238Z,27.35
2019-02-26T04:33:43.979Z,21.23
2019-02-26T04:36:27.308Z,30.88
2019-02-26T04:39:30.464Z,28.80
2019-02-26T04:42:09.420Z,29.90
2019-02-26T04:45:02.117Z,29.72
2019-02-26T04:47:48.213Z,27.73
2019-02-26T04:50:17.056Z,30.90
2019-02-26T04:52:48.110Z,30.97
2019-02-26T04:55:19.213Z,26.90
2019-02-26T04:57:53.949Z,30.48
2019-02-26T05:00:30.442Z,29.52
2019-02-26T05:03:01.287Z,26.68
2019-02-26T05:05:36.537Z,30.17
2019-02-26T05:08:07.662Z,23.22
2019-02-26T05:10:39.689Z,25.43
2019-02-26T05:13:11.187Z,26.02
2019-02-26T05:15:43.770Z,24.50
2019-02-26T05:18:17.634Z,26.37
2019-02-26T05:20:51.283Z,27.67
2019-02-26T05:23:23.281Z,25.75
2019-02-26T05:25:59.704Z,31.60
2019-02-26T05:28:35.374Z,27.73
2019-02-26T05:31:06.563Z,24.07
2019-02-26T05:33:37.187Z,31.27
2019-02-26T05:36:09.436Z,26.40
2019-02-26T05:38:40.839Z,25.52
2019-02-26T05:41:11.718Z,33.75
2019-02-26T05:43:42.636Z,22.98
2019-02-26T05:46:15.692Z,24.12
2019-02-26T05:48:48.385Z,33.70
2019-02-26T05:51:18.914Z,23.95
2019-02-26T05:53:50.950Z,33.13
2019-02-26T05:56:22.916Z,25.43
2019-02-26T05:58:54.362Z,35.70
2019-02-26T06:01:27.835Z,33.70
2019-02-26T06:04:00.803Z,33.78
2019-02-26T06:06:36.040Z,30.77
2019-02-26T06:09:07.743Z,34.10
2019-02-26T06:11:41.677Z,39.00
2019-02-26T06:14:12.794Z,39.08
2019-02-26T06:16:46.327Z,35.50
2019-02-26T06:21:51.650Z,42.10
